Time;durP1;ratioP1;P1;durP2;ratioP2;P2;SDS_P1;SDS_P2;PMS_P1;PMS_P2;Temp;Humidity;BMP_temperature;BMP_pressure;BME280_temperature;BME280_humidity;BME280_pressure;Samples;Min_cycle;Max_cycle;Signal;HPM_P1;HPM_P2
2023/02/07 00:00:29;;;;;;;;;;;;;;;-7.98;91.11;101231.31;68054;1275;1016976;-61
2023/02/07 00:03:51;;;;;;;;;;;;;;;-8.07;90.97;101226.91;68061;1275;1015859;-60
2023/02/07 00:06:54;;;;;;;;;;;;;;;-8.10;91.57;101214.89;67958;1275;1018817;-61
2023/02/07 00:09:56;;;;;;;;;;;;;;;-8.15;91.92;101211.38;67986;1275;1016444;-61
2023/02/07 00:12:58;;;;;;;;;;;;;;;-8.07;92.09;101214.55;67919;1275;1016386;-60
2023/02/07 00:16:01;;;;;;;;;;;;;;;-8.06;90.29;101215.78;68073;1275;1017688;-61
2023/02/07 00:19:03;;;;;;;;;;;;;;;-8.06;90.44;101225.77;68035;1275;1016433;-61
2023/02/07 00:22:06;;;;;;;;;;;;;;;-8.00;91.41;101223.20;68012;1275;1016307;-61
2023/02/07 00:25:08;;;;;;;;;;;;;;;-7.97;91.35;101221.84;68005;1275;1016549;-60
2023/02/07 00:28:11;;;;;;;;;;;;;;;-7.95;91.41;101224.98;68076;1275;1016282;-60
2023/02/07 00:31:13;;;;;;;;;;;;;;;-8.04;92.21;101230.34;68043;1275;1016148;-61
2023/02/07 00:34:16;;;;;;;;;;;;;;;-8.07;92.92;101221.17;67962;1275;1016361;-60
2023/02/07 00:37:18;;;;;;;;;;;;;;;-7.98;91.37;101214.80;68013;1275;1016026;-60
2023/02/07 00:40:22;;;;;;;;;;;;;;;-7.99;90.66;101215.59;68024;1275;1016246;-60
2023/02/07 00:43:24;;;;;;;;;;;;;;;-8.10;91.30;101210.63;68015;1275;1016281;-60
2023/02/07 00:46:27;;;;;;;;;;;;;;;-8.23;90.28;101203.67;68053;1275;1016419;-60
2023/02/07 00:49:29;;;;;;;;;;;;;;;-8.23;90.85;101194.86;68034;1275;1016300;-60
2023/02/07 00:52:32;;;;;;;;;;;;;;;-8.18;91.21;101195.95;68035;1275;1016321;-61
2023/02/07 00:55:34;;;;;;;;;;;;;;;-8.17;91.92;101190.04;67995;1275;1016219;-60
2023/02/07 00:58:36;;;;;;;;;;;;;;;-8.16;92.07;101180.91;68010;1275;1016301;-60
2023/02/07 01:01:39;;;;;;;;;;;;;;;-8.14;92.80;101169.85;68053;1275;1016544;-61
2023/02/07 01:04:41;;;;;;;;;;;;;;;-8.18;93.15;101172.55;68058;1275;1016239;-60
2023/02/07 01:07:44;;;;;;;;;;;;;;;-8.14;93.78;101163.39;68055;1275;1016561;-60
2023/02/07 01:10:46;;;;;;;;;;;;;;;-8.13;93.69;101156.31;68018;1275;1016762;-61
2023/02/07 01:13:48;;;;;;;;;;;;;;;-8.15;93.10;101161.98;68012;1275;1016349;-61
2023/02/07 01:16:51;;;;;;;;;;;;;;;-8.17;93.94;101156.98;68013;1275;1016383;-60
2023/02/07 01:19:53;;;;;;;;;;;;;;;-8.18;93.68;101152.67;68061;1275;1016190;-61
2023/02/07 01:22:56;;;;;;;;;;;;;;;-8.14;93.95;101155.23;68050;1275;1016350;-60
2023/02/07 01:25:58;;;;;;;;;;;;;;;-8.08;94.37;101163.22;67995;1275;1016425;-60
2023/02/07 01:29:01;;;;;;;;;;;;;;;-8.07;94.86;101169.54;68007;1275;1016506;-60
2023/02/07 01:32:04;;;;;;;;;;;;;;;-7.98;94.78;101173.86;68038;1275;1016488;-61
2023/02/07 01:35:06;;;;;;;;;;;;;;;-7.98;94.73;101174.39;68001;1275;1018500;-61
2023/02/07 01:38:09;;;;;;;;;;;;;;;-8.14;94.04;101182.61;68019;1275;1016428;-60
2023/02/07 01:41:11;;;;;;;;;;;;;;;-8.24;94.76;101176.29;68057;1275;1016944;-60
2023/02/07 01:44:13;;;;;;;;;;;;;;;-8.20;95.46;101168.52;68040;1275;1016470;-61
2023/02/07 01:47:16;;;;;;;;;;;;;;;-8.07;95.47;101160.52;68073;1275;1016523;-60
2023/02/07 01:50:18;;;;;;;;;;;;;;;-8.06;95.13;101160.79;68009;1275;1016352;-60
2023/02/07 01:53:21;;;;;;;;;;;;;;;-8.01;94.63;101164.88;68005;1275;1016543;-61
2023/02/07 01:56:23;;;;;;;;;;;;;;;-8.01;94.00;101168.98;68009;1275;1016334;-61
2023/02/07 01:59:25;;;;;;;;;;;;;;;-8.04;93.97;101172.24;68007;1275;1018651;-60
2023/02/07 02:02:28;;;;;;;;;;;;;;;-8.00;94.91;101174.98;68048;1275;1016452;-60
2023/02/07 02:05:31;;;;;;;;;;;;;;;-7.99;95.13;101176.55;68019;1275;1016492;-61
2023/02/07 02:08:33;;;;;;;;;;;;;;;-7.86;95.90;101174.36;67997;1275;1016593;-60
2023/02/07 02:11:36;;;;;;;;;;;;;;;-7.77;94.64;101172.55;67991;1275;1016442;-61
2023/02/07 02:14:38;;;;;;;;;;;;;;;-7.78;93.66;101171.52;68016;1275;1015759;-60
2023/02/07 02:17:41;;;;;;;;;;;;;;;-7.76;94.08;101171.63;68085;1275;1018004;-60
2023/02/07 02:20:43;;;;;;;;;;;;;;;-7.68;93.66;101167.75;67996;1275;1016225;-61
2023/02/07 02:23:46;;;;;;;;;;;;;;;-7.65;94.22;101172.84;68070;1275;1016377;-61
2023/02/07 02:26:48;;;;;;;;;;;;;;;-7.60;94.25;101177.83;68068;1275;1019472;-61
2023/02/07 02:29:51;;;;;;;;;;;;;;;-7.76;91.91;101179.27;68059;1275;1016277;-61
2023/02/07 02:32:53;;;;;;;;;;;;;;;-8.05;92.28;101182.02;68009;1275;1017138;-61
2023/02/07 02:35:56;;;;;;;;;;;;;;;-8.16;91.87;101187.90;67974;1275;1016365;-61
2023/02/07 02:38:58;;;;;;;;;;;;;;;-8.29;92.14;101192.98;68036;1275;1016445;-61
2023/02/07 02:42:01;;;;;;;;;;;;;;;-8.35;92.79;101187.55;67997;1275;1016278;-61
2023/02/07 02:45:03;;;;;;;;;;;;;;;-8.38;93.06;101188.64;67997;1275;1016332;-60
2023/02/07 02:48:05;;;;;;;;;;;;;;;-8.43;92.90;101189.92;67991;1275;1016471;-60
2023/02/07 02:51:08;;;;;;;;;;;;;;;-8.43;92.62;101186.86;68010;1275;1018227;-61
2023/02/07 02:54:10;;;;;;;;;;;;;;;-8.45;92.57;101190.15;68048;1275;1016062;-60
2023/02/07 02:57:13;;;;;;;;;;;;;;;-8.42;92.86;101187.58;68042;1275;1019663;-61
2023/02/07 03:00:15;;;;;;;;;;;;;;;-8.37;92.54;101192.92;68007;1275;1016338;-60
2023/02/07 03:03:17;;;;;;;;;;;;;;;-8.42;92.28;101198.96;67976;1275;1016401;-61
2023/02/07 03:06:20;;;;;;;;;;;;;;;-8.35;92.49;101197.75;68022;1275;1017329;-60
2023/02/07 03:09:22;;;;;;;;;;;;;;;-8.18;92.39;101194.09;68029;1275;1016069;-60
2023/02/07 03:12:25;;;;;;;;;;;;;;;-8.13;91.32;101191.80;68028;1275;1015764;-60
2023/02/07 03:15:27;;;;;;;;;;;;;;;-8.07;91.32;101182.94;67984;1275;1015930;-61
2023/02/07 03:18:30;;;;;;;;;;;;;;;-7.99;91.31;101186.59;68024;1275;1018035;-60
2023/02/07 03:21:32;;;;;;;;;;;;;;;-8.05;90.67;101182.56;68013;1275;1016105;-60
2023/02/07 03:24:34;;;;;;;;;;;;;;;-8.23;91.39;101178.89;68001;1275;1015737;-60
2023/02/07 03:27:37;;;;;;;;;;;;;;;-8.29;92.56;101184.16;68062;1275;1016887;-60
2023/02/07 03:30:39;;;;;;;;;;;;;;;-8.36;92.35;101186.50;68012;1275;1016433;-60
2023/02/07 03:33:42;;;;;;;;;;;;;;;-8.48;92.78;101187.77;68008;1275;1016094;-60
2023/02/07 03:36:44;;;;;;;;;;;;;;;-8.74;93.70;101192.86;67985;1275;1016355;-60
2023/02/07 03:39:46;;;;;;;;;;;;;;;-8.93;93.04;101192.45;68039;1275;1019102;-60
2023/02/07 03:42:49;;;;;;;;;;;;;;;-9.06;93.84;101188.50;68031;1275;1016343;-60
2023/02/07 03:45:51;;;;;;;;;;;;;;;-9.04;94.39;101186.63;68045;1275;1016413;-60
2023/02/07 03:48:54;;;;;;;;;;;;;;;-8.80;95.44;101184.04;68007;1275;1016515;-60
2023/02/07 03:51:57;;;;;;;;;;;;;;;-8.51;95.56;101175.55;68036;1275;1016361;-60
2023/02/07 03:54:59;;;;;;;;;;;;;;;-8.24;96.14;101168.46;68023;1275;1016491;-61
2023/02/07 03:58:02;;;;;;;;;;;;;;;-7.95;96.04;101169.27;67996;1275;1016145;-60
2023/02/07 04:01:05;;;;;;;;;;;;;;;-7.70;96.65;101171.08;67973;1275;1016372;-60
2023/02/07 04:04:07;;;;;;;;;;;;;;;-7.47;96.50;101172.73;68027;1275;1015975;-60
2023/02/07 04:07:09;;;;;;;;;;;;;;;-7.20;97.18;101169.42;68020;1275;1016040;-61
2023/02/07 04:10:12;;;;;;;;;;;;;;;-7.00;97.31;101166.84;68025;1275;1016614;-61
2023/02/07 04:13:14;;;;;;;;;;;;;;;-6.67;97.69;101161.70;67985;1275;1016959;-60
2023/02/07 04:16:17;;;;;;;;;;;;;;;-6.40;97.14;101157.68;67981;1274;1016497;-60
2023/02/07 04:19:19;;;;;;;;;;;;;;;-6.25;97.67;101155.42;68032;1275;1016091;-61
2023/02/07 04:22:21;;;;;;;;;;;;;;;-5.99;97.28;101147.68;68017;1275;1016431;-60
2023/02/07 04:25:24;;;;;;;;;;;;;;;-5.90;96.78;101154.38;68025;1275;1016878;-60
2023/02/07 04:28:26;;;;;;;;;;;;;;;-5.75;96.74;101159.08;68029;1275;1016453;-60
2023/02/07 04:31:29;;;;;;;;;;;;;;;-5.56;96.63;101161.94;67978;1275;1018636;-61
2023/02/07 04:34:31;;;;;;;;;;;;;;;-5.46;96.27;101160.48;68000;1275;1016677;-61
2023/02/07 04:37:33;;;;;;;;;;;;;;;-5.51;96.40;101158.55;68010;1275;1018924;-60
2023/02/07 04:40:36;;;;;;;;;;;;;;;-5.73;97.29;101164.80;68023;1275;1016520;-60
2023/02/07 04:43:38;;;;;;;;;;;;;;;-5.84;99.04;101161.95;67987;1275;1016285;-61
2023/02/07 04:46:41;;;;;;;;;;;;;;;-5.84;99.94;101168.73;67972;1275;1016087;-61
2023/02/07 04:49:43;;;;;;;;;;;;;;;-5.75;99.96;101171.91;67997;1275;1018848;-60
2023/02/07 04:52:45;;;;;;;;;;;;;;;-5.82;100.00;101171.09;67992;1275;1016290;-60
2023/02/07 04:55:48;;;;;;;;;;;;;;;-5.89;100.00;101165.15;68022;1275;1016426;-60
2023/02/07 04:58:50;;;;;;;;;;;;;;;-5.86;100.00;101165.77;67995;1275;1017160;-61
2023/02/07 05:01:53;;;;;;;;;;;;;;;-5.81;100.00;101162.75;67953;1275;1016155;-60
2023/02/07 05:04:55;;;;;;;;;;;;;;;-5.69;100.00;101157.95;67943;1275;1016141;-60
2023/02/07 05:07:58;;;;;;;;;;;;;;;-5.45;100.00;101155.91;67991;1275;1016353;-60
2023/02/07 05:11:00;;;;;;;;;;;;;;;-5.34;100.00;101163.66;67980;1275;1018352;-61
2023/02/07 05:14:02;;;;;;;;;;;;;;;-5.42;100.00;101165.58;68015;1275;1016437;-61
2023/02/07 05:17:05;;;;;;;;;;;;;;;-5.36;100.00;101163.61;67956;1275;1016096;-60
2023/02/07 05:20:07;;;;;;;;;;;;;;;-5.36;100.00;101159.16;67947;1275;1016504;-61
2023/02/07 05:23:10;;;;;;;;;;;;;;;-5.34;100.00;101152.23;67990;1275;1016022;-61
2023/02/07 05:26:13;;;;;;;;;;;;;;;-5.39;100.00;101157.66;67990;1275;1016227;-60
2023/02/07 05:29:15;;;;;;;;;;;;;;;-5.44;100.00;101158.17;67940;1275;1016343;-60
2023/02/07 05:35:38;;;;;;;;;;;;;;;-5.29;100.00;101165.24;67982;1275;1016628;-60
2023/02/07 05:38:40;;;;;;;;;;;;;;;-5.29;100.00;101159.45;68002;1275;1016038;-60
2023/02/07 05:41:43;;;;;;;;;;;;;;;-5.37;100.00;101165.06;67980;1275;1016444;-60
2023/02/07 05:44:45;;;;;;;;;;;;;;;-5.38;100.00;101161.30;67902;1275;1017065;-60
2023/02/07 05:47:48;;;;;;;;;;;;;;;-5.36;100.00;101155.95;67931;1275;1016455;-60
2023/02/07 05:50:50;;;;;;;;;;;;;;;-5.32;100.00;101159.14;67963;1275;1016254;-60
2023/02/07 05:53:52;;;;;;;;;;;;;;;-5.28;100.00;101161.19;67995;1275;1016231;-60
2023/02/07 05:56:55;;;;;;;;;;;;;;;-5.24;100.00;101166.65;67988;1275;1016787;-60
2023/02/07 05:59:58;;;;;;;;;;;;;;;-5.29;100.00;101174.31;67983;1275;1016511;-60
2023/02/07 06:03:00;;;;;;;;;;;;;;;-5.25;100.00;101176.17;67978;1275;1016454;-60
2023/02/07 06:06:03;;;;;;;;;;;;;;;-5.23;100.00;101178.30;67983;1275;1016489;-60
2023/02/07 06:09:06;;;;;;;;;;;;;;;-5.27;100.00;101177.96;67949;1275;1016430;-60
2023/02/07 06:12:08;;;;;;;;;;;;;;;-5.26;100.00;101182.96;67977;1275;1016165;-60
2023/02/07 06:15:11;;;;;;;;;;;;;;;-5.27;100.00;101183.61;67977;1275;1016448;-60
2023/02/07 06:18:13;;;;;;;;;;;;;;;-5.20;100.00;101180.46;67960;1275;1016218;-60
2023/02/07 06:21:15;;;;;;;;;;;;;;;-5.14;100.00;101187.88;67942;1275;1016578;-60
2023/02/07 06:24:18;;;;;;;;;;;;;;;-5.13;100.00;101186.02;67948;1275;1016341;-60
2023/02/07 06:27:20;;;;;;;;;;;;;;;-5.12;100.00;101190.34;67994;1275;1016243;-60
2023/02/07 06:30:23;;;;;;;;;;;;;;;-5.06;100.00;101199.96;68002;1275;1016485;-60
2023/02/07 06:33:25;;;;;;;;;;;;;;;-5.02;100.00;101201.65;67962;1275;1020300;-60
2023/02/07 06:36:27;;;;;;;;;;;;;;;-4.94;100.00;101203.16;67948;1275;1016506;-60
2023/02/07 06:39:30;;;;;;;;;;;;;;;-4.88;100.00;101214.84;67973;1275;1016211;-60
2023/02/07 06:42:32;;;;;;;;;;;;;;;-4.81;100.00;101212.21;68017;1275;1016180;-60
2023/02/07 06:45:35;;;;;;;;;;;;;;;-4.77;100.00;101207.41;68005;1275;1016453;-60
2023/02/07 06:48:37;;;;;;;;;;;;;;;-4.61;100.00;101202.57;68001;1275;1016128;-60
2023/02/07 06:51:39;;;;;;;;;;;;;;;-4.49;100.00;101206.80;67950;1275;1016208;-60
2023/02/07 06:54:42;;;;;;;;;;;;;;;-4.50;100.00;101203.16;67934;1275;1016458;-59
2023/02/07 06:57:44;;;;;;;;;;;;;;;-4.52;100.00;101203.45;67962;1275;1018622;-60
2023/02/07 07:00:47;;;;;;;;;;;;;;;-4.53;100.00;101205.27;68003;1275;1019955;-60
2023/02/07 07:03:50;;;;;;;;;;;;;;;-4.48;100.00;101204.60;67977;1275;1016256;-60
2023/02/07 07:06:53;;;;;;;;;;;;;;;-4.43;100.00;101201.71;68003;1275;1018133;-60
2023/02/07 07:09:55;;;;;;;;;;;;;;;-4.38;100.00;101201.39;67999;1275;1016433;-61
2023/02/07 07:12:57;;;;;;;;;;;;;;;-4.34;100.00;101195.93;67984;1275;1018114;-60
2023/02/07 07:16:00;;;;;;;;;;;;;;;-4.18;100.00;101197.69;67962;1275;1017500;-60
2023/02/07 07:19:03;;;;;;;;;;;;;;;-3.97;100.00;101198.12;67957;1275;1016579;-60
2023/02/07 07:22:05;;;;;;;;;;;;;;;-3.79;100.00;101199.79;68007;1275;1017290;-60
2023/02/07 07:25:08;;;;;;;;;;;;;;;-3.73;100.00;101199.14;68021;1275;1016415;-60
2023/02/07 07:28:11;;;;;;;;;;;;;;;-3.76;100.00;101198.52;67964;1275;1016023;-60
2023/02/07 07:31:13;;;;;;;;;;;;;;;-3.80;100.00;101198.71;67930;1275;1016332;-60
2023/02/07 07:34:15;;;;;;;;;;;;;;;-3.74;100.00;101197.38;68015;1275;1018799;-60
2023/02/07 07:37:18;;;;;;;;;;;;;;;-3.86;100.00;101201.27;67993;1275;1016365;-60
2023/02/07 07:40:20;;;;;;;;;;;;;;;-3.76;100.00;101201.27;67971;1275;1015899;-60
2023/02/07 07:43:23;;;;;;;;;;;;;;;-3.70;100.00;101195.98;67948;1275;1016494;-60
2023/02/07 07:46:25;;;;;;;;;;;;;;;-3.63;100.00;101199.48;67950;1275;1016668;-60
2023/02/07 07:49:27;;;;;;;;;;;;;;;-3.61;100.00;101201.61;67994;1275;1016506;-60
2023/02/07 07:52:30;;;;;;;;;;;;;;;-3.54;100.00;101204.09;67995;1275;1016495;-60
2023/02/07 07:55:32;;;;;;;;;;;;;;;-3.48;100.00;101208.71;68007;1275;1016484;-60
2023/02/07 07:58:35;;;;;;;;;;;;;;;-3.38;100.00;101216.41;67949;1275;1016559;-60
2023/02/07 08:01:37;;;;;;;;;;;;;;;-3.35;100.00;101215.82;67936;1275;1016481;-60
2023/02/07 08:04:40;;;;;;;;;;;;;;;-3.32;100.00;101211.50;67929;1275;1016378;-60
2023/02/07 08:07:42;;;;;;;;;;;;;;;-3.29;100.00;101211.25;67999;1275;1016286;-60
2023/02/07 08:10:45;;;;;;;;;;;;;;;-3.27;100.00;101208.40;68002;1275;1016465;-59
2023/02/07 08:13:47;;;;;;;;;;;;;;;-3.24;100.00;101207.83;67941;1275;1016469;-60
2023/02/07 08:16:50;;;;;;;;;;;;;;;-3.14;100.00;101204.02;68012;1275;1016477;-60
2023/02/07 08:19:53;;;;;;;;;;;;;;;-3.13;100.00;101204.59;67987;1275;1016604;-60
2023/02/07 08:22:56;;;;;;;;;;;;;;;-3.00;100.00;101203.83;67947;1275;1016528;-60
2023/02/07 08:25:59;;;;;;;;;;;;;;;-2.89;100.00;101203.81;67964;1275;1016615;-60
2023/02/07 08:29:01;;;;;;;;;;;;;;;-2.83;100.00;101197.84;67952;1275;1016409;-60
2023/02/07 08:32:07;;;;;;;;;;;;;;;-2.72;100.00;101191.66;67923;1275;1016302;-60
2023/02/07 08:35:09;;;;;;;;;;;;;;;-2.58;100.00;101192.79;67992;1275;1016447;-60
2023/02/07 08:38:12;;;;;;;;;;;;;;;-2.41;100.00;101189.69;67948;1275;1016279;-60
2023/02/07 08:41:14;;;;;;;;;;;;;;;-2.33;100.00;101182.91;67933;1275;1016618;-60
2023/02/07 08:44:17;;;;;;;;;;;;;;;-2.20;100.00;101171.96;67957;1275;1016291;-60
2023/02/07 08:47:20;;;;;;;;;;;;;;;-2.09;100.00;101174.33;67916;1275;1016289;-60
2023/02/07 08:50:22;;;;;;;;;;;;;;;-1.73;100.00;101174.28;67968;1275;1016459;-60
2023/02/07 08:53:25;;;;;;;;;;;;;;;-1.50;100.00;101181.23;67971;1275;1016368;-60
2023/02/07 08:56:27;;;;;;;;;;;;;;;-1.44;100.00;101175.39;67986;1275;1016473;-60
2023/02/07 08:59:30;;;;;;;;;;;;;;;-1.38;100.00;101181.55;67954;1275;1016272;-60
2023/02/07 09:02:32;;;;;;;;;;;;;;;-1.22;100.00;101180.04;67969;1275;1016227;-60
2023/02/07 09:05:34;;;;;;;;;;;;;;;-1.04;100.00;101180.65;68006;1275;1015776;-60
2023/02/07 09:08:37;;;;;;;;;;;;;;;-0.95;100.00;101178.13;68015;1275;1016476;-60
2023/02/07 09:11:39;;;;;;;;;;;;;;;-0.70;100.00;101176.10;68005;1275;1016239;-60
2023/02/07 09:14:42;;;;;;;;;;;;;;;-0.42;100.00;101178.96;67997;1275;1015757;-60
2023/02/07 09:17:45;;;;;;;;;;;;;;;-0.01;100.00;101178.09;67977;1275;1019060;-60
2023/02/07 09:20:47;;;;;;;;;;;;;;;0.44;100.00;101179.44;68020;1275;1019315;-60
2023/02/07 09:23:49;;;;;;;;;;;;;;;0.71;100.00;101176.99;68031;1275;1016897;-60
2023/02/07 09:26:52;;;;;;;;;;;;;;;0.76;100.00;101180.86;68005;1275;1016107;-60
2023/02/07 09:29:54;;;;;;;;;;;;;;;1.06;100.00;101184.63;67967;1275;1016441;-60
2023/02/07 09:32:57;;;;;;;;;;;;;;;1.41;100.00;101178.24;68000;1275;1016240;-60
2023/02/07 09:36:01;;;;;;;;;;;;;;;1.77;99.99;101169.23;68039;1275;1018883;-59
2023/02/07 09:39:04;;;;;;;;;;;;;;;2.04;97.99;101164.55;67988;1275;1016315;-60
2023/02/07 09:42:07;;;;;;;;;;;;;;;1.91;96.92;101157.34;68024;1275;1016240;-59
2023/02/07 09:45:09;;;;;;;;;;;;;;;1.77;98.04;101156.83;68035;1275;1016886;-60
2023/02/07 09:48:12;;;;;;;;;;;;;;;1.53;99.17;101156.86;68002;1275;1016467;-60
2023/02/07 09:51:14;;;;;;;;;;;;;;;1.47;100.00;101151.61;67970;1275;1016347;-59
2023/02/07 09:54:19;;;;;;;;;;;;;;;1.54;100.00;101162.73;67974;1275;1016665;-60
2023/02/07 09:57:22;;;;;;;;;;;;;;;1.67;100.00;101152.39;67987;1275;1016222;-60
2023/02/07 10:00:24;;;;;;;;;;;;;;;1.86;100.00;101147.45;67967;1275;1016468;-60
2023/02/07 10:03:28;;;;;;;;;;;;;;;2.04;99.63;101145.92;67974;1275;1016194;-60
2023/02/07 10:06:31;;;;;;;;;;;;;;;2.20;99.19;101135.39;67993;1275;1016441;-60
2023/02/07 10:09:33;;;;;;;;;;;;;;;2.48;99.49;101135.14;68022;1275;1016237;-60
2023/02/07 10:12:35;;;;;;;;;;;;;;;2.72;99.50;101131.71;68045;1275;1016269;-60
2023/02/07 10:15:38;;;;;;;;;;;;;;;2.97;98.75;101127.75;67957;1275;1016438;-60
2023/02/07 10:18:40;;;;;;;;;;;;;;;2.92;96.61;101132.56;68004;1275;1016481;-60
2023/02/07 10:21:43;;;;;;;;;;;;;;;2.93;98.40;101130.84;68011;1275;1019527;-60
2023/02/07 10:24:45;;;;;;;;;;;;;;;3.14;96.78;101130.63;68033;1275;1015757;-60
2023/02/07 10:27:47;;;;;;;;;;;;;;;2.97;95.76;101135.20;68004;1275;1016444;-60
2023/02/07 10:30:50;;;;;;;;;;;;;;;2.95;96.67;101136.38;68022;1275;1016460;-60
2023/02/07 10:33:52;;;;;;;;;;;;;;;3.05;95.77;101131.95;67998;1275;1016496;-60
2023/02/07 10:36:55;;;;;;;;;;;;;;;3.21;97.58;101130.17;67975;1275;1016442;-60
2023/02/07 10:39:58;;;;;;;;;;;;;;;3.56;97.11;101130.34;68023;1275;1016413;-60
2023/02/07 10:43:00;;;;;;;;;;;;;;;3.70;95.94;101133.01;68026;1275;1016115;-60
2023/02/07 10:46:04;;;;;;;;;;;;;;;3.85;95.29;101131.85;67985;1275;1016455;-59
2023/02/07 10:49:08;;;;;;;;;;;;;;;3.93;95.18;101133.42;68000;1275;1016186;-59
2023/02/07 10:52:10;;;;;;;;;;;;;;;4.09;95.85;101132.09;67964;1275;1016687;-59
2023/02/07 10:55:13;;;;;;;;;;;;;;;4.03;93.07;101132.78;67917;1275;1016317;-59
2023/02/07 10:58:15;;;;;;;;;;;;;;;3.93;92.80;101130.33;67920;1275;1016440;-59
2023/02/07 11:01:18;;;;;;;;;;;;;;;3.88;92.28;101130.83;67942;1275;1016017;-59
2023/02/07 11:04:20;;;;;;;;;;;;;;;3.70;92.16;101124.18;67948;1275;1017992;-59
2023/02/07 11:07:23;;;;;;;;;;;;;;;3.45;92.29;101122.69;67765;1275;1016503;-60
2023/02/07 11:10:25;;;;;;;;;;;;;;;3.39;92.81;101125.24;67773;1275;1016467;-60
2023/02/07 11:13:28;;;;;;;;;;;;;;;3.43;93.32;101122.15;67862;1275;1016381;-59
2023/02/07 11:16:30;;;;;;;;;;;;;;;3.53;92.73;101124.45;67958;1275;1016057;-60
2023/02/07 11:19:32;;;;;;;;;;;;;;;3.50;92.09;101125.14;67980;1275;1016321;-59
2023/02/07 11:22:35;;;;;;;;;;;;;;;3.40;92.35;101120.58;67993;1275;1016538;-59
2023/02/07 11:25:37;;;;;;;;;;;;;;;3.29;91.75;101124.15;67979;1275;1016432;-60
2023/02/07 11:28:40;;;;;;;;;;;;;;;3.24;92.23;101126.02;68028;1275;1018153;-59
2023/02/07 11:31:43;;;;;;;;;;;;;;;3.26;91.59;101124.13;67999;1275;1016479;-59
2023/02/07 11:34:45;;;;;;;;;;;;;;;3.22;91.80;101121.52;67967;1275;1016488;-60
2023/02/07 11:37:48;;;;;;;;;;;;;;;3.18;92.02;101127.03;68026;1275;1016305;-59
2023/02/07 11:40:51;;;;;;;;;;;;;;;3.16;92.80;101121.14;68041;1275;1016423;-59
2023/02/07 11:43:54;;;;;;;;;;;;;;;3.13;92.51;101122.33;67990;1275;1018901;-61
2023/02/07 11:46:57;;;;;;;;;;;;;;;3.13;91.98;101115.24;68027;1275;1017625;-61
2023/02/07 11:49:59;;;;;;;;;;;;;;;3.22;91.19;101120.13;67975;1275;1016349;-62
2023/02/07 11:53:01;;;;;;;;;;;;;;;3.24;91.28;101117.55;67963;1275;1016581;-61
2023/02/07 11:56:04;;;;;;;;;;;;;;;3.26;91.62;101117.91;68036;1275;1016377;-61
2023/02/07 11:59:07;;;;;;;;;;;;;;;3.35;91.78;101109.66;67952;1275;1018363;-61
2023/02/07 12:02:09;;;;;;;;;;;;;;;3.47;89.79;101114.55;67952;1275;1016443;-60
2023/02/07 12:05:12;;;;;;;;;;;;;;;3.60;91.01;101109.77;68014;1275;1016432;-61
2023/02/07 12:08:14;;;;;;;;;;;;;;;3.63;90.00;101108.92;68053;1275;1016330;-60
2023/02/07 12:11:16;;;;;;;;;;;;;;;3.46;89.83;101101.92;66393;1275;4197296;-59
2023/02/07 12:14:19;;;;;;;;;;;;;;;3.25;90.41;101099.05;67888;1275;1017243;-60
2023/02/07 12:17:21;;;;;;;;;;;;;;;3.08;91.63;101100.52;67800;1275;1019185;-59
2023/02/07 12:20:24;;;;;;;;;;;;;;;3.05;91.61;101102.92;67871;1275;1016640;-59
2023/02/07 12:23:26;;;;;;;;;;;;;;;3.09;90.76;101100.17;67816;1275;1016221;-59
2023/02/07 12:26:28;;;;;;;;;;;;;;;2.93;90.80;101105.42;67869;1275;1016285;-60
2023/02/07 12:29:31;;;;;;;;;;;;;;;2.78;91.27;101104.64;67849;1275;1016461;-60
2023/02/07 12:32:34;;;;;;;;;;;;;;;2.80;91.90;101107.24;67840;1275;1016497;-60
2023/02/07 12:35:36;;;;;;;;;;;;;;;2.79;92.18;101105.15;67944;1275;1016240;-60
2023/02/07 12:38:39;;;;;;;;;;;;;;;2.78;93.12;101103.27;67893;1275;1016288;-60
2023/02/07 12:41:41;;;;;;;;;;;;;;;2.75;91.82;101107.20;67931;1275;1015833;-60
2023/02/07 12:44:44;;;;;;;;;;;;;;;2.71;91.17;101110.27;67887;1275;1016315;-60
2023/02/07 12:47:46;;;;;;;;;;;;;;;2.68;91.79;101120.80;67938;1275;1016698;-60
2023/02/07 12:50:49;;;;;;;;;;;;;;;2.65;91.61;101118.17;68075;1275;1016243;-60
2023/02/07 12:53:52;;;;;;;;;;;;;;;2.52;91.66;101109.95;68038;1275;1017096;-60
2023/02/07 12:56:55;;;;;;;;;;;;;;;2.48;92.02;101113.04;67977;1275;1016247;-60
2023/02/07 12:59:57;;;;;;;;;;;;;;;2.44;91.84;101108.51;68068;1275;1016904;-59
2023/02/07 13:03:00;;;;;;;;;;;;;;;2.39;92.07;101106.56;68047;1275;1016190;-60
2023/02/07 13:06:02;;;;;;;;;;;;;;;2.30;92.24;101106.99;67996;1275;1016475;-60
2023/02/07 13:09:05;;;;;;;;;;;;;;;2.24;92.75;101105.73;68008;1275;1016396;-60
2023/02/07 13:12:07;;;;;;;;;;;;;;;2.10;93.32;101102.49;68032;1275;1016499;-59
2023/02/07 13:15:10;;;;;;;;;;;;;;;2.05;94.16;101103.64;67997;1275;1016121;-60
2023/02/07 13:18:12;;;;;;;;;;;;;;;2.12;94.64;101101.82;68005;1275;1016094;-60
2023/02/07 13:21:15;;;;;;;;;;;;;;;2.27;94.22;101102.84;68039;1275;1016918;-60
2023/02/07 13:24:17;;;;;;;;;;;;;;;2.40;93.41;101111.06;68040;1275;1016457;-60
2023/02/07 13:27:20;;;;;;;;;;;;;;;2.47;93.47;101111.64;68021;1275;1016382;-60
2023/02/07 13:30:22;;;;;;;;;;;;;;;2.42;93.38;101113.51;68003;1275;1016471;-60
2023/02/07 13:33:25;;;;;;;;;;;;;;;2.28;93.47;101113.20;68040;1275;1016259;-60
2023/02/07 13:36:27;;;;;;;;;;;;;;;2.11;94.12;101115.10;68063;1275;1016437;-60
2023/02/07 13:39:29;;;;;;;;;;;;;;;2.21;94.35;101113.98;68061;1275;1017074;-60
2023/02/07 13:42:32;;;;;;;;;;;;;;;2.40;92.68;101115.73;68033;1275;1016390;-60
2023/02/07 13:45:35;;;;;;;;;;;;;;;2.36;92.46;101116.21;67998;1275;1016408;-60
2023/02/07 13:48:37;;;;;;;;;;;;;;;2.51;92.65;101112.89;68034;1275;1016378;-60
2023/02/07 13:51:40;;;;;;;;;;;;;;;2.66;91.61;101116.11;68049;1275;1015808;-60
2023/02/07 13:54:42;;;;;;;;;;;;;;;2.70;91.90;101110.11;68067;1275;1016508;-60
2023/02/07 14:01:05;;;;;;;;;;;;;;;2.61;90.91;101106.05;68039;1275;1016440;-60
2023/02/07 14:04:08;;;;;;;;;;;;;;;2.38;91.26;101111.22;68077;1275;1016456;-60
2023/02/07 14:07:10;;;;;;;;;;;;;;;2.32;92.00;101112.19;68013;1275;1015730;-60
2023/02/07 14:10:13;;;;;;;;;;;;;;;2.27;92.64;101110.59;68011;1275;1016233;-60
2023/02/07 14:13:15;;;;;;;;;;;;;;;2.26;92.89;101113.00;68018;1275;1016203;-60
2023/02/07 14:16:18;;;;;;;;;;;;;;;2.21;92.34;101116.92;68016;1275;1016840;-60
2023/02/07 14:19:20;;;;;;;;;;;;;;;2.11;92.83;101118.39;68038;1275;1016333;-60
2023/02/07 14:22:22;;;;;;;;;;;;;;;2.13;93.59;101115.28;68046;1275;1018216;-59
2023/02/07 14:25:25;;;;;;;;;;;;;;;2.25;93.53;101119.73;67969;1275;1016207;-60
2023/02/07 14:28:27;;;;;;;;;;;;;;;2.19;93.04;101120.70;68007;1275;1016336;-60
2023/02/07 14:31:30;;;;;;;;;;;;;;;2.12;93.11;101119.77;68015;1275;1016268;-60
2023/02/07 14:34:32;;;;;;;;;;;;;;;2.09;93.80;101121.48;68068;1275;1016317;-60
2023/02/07 14:37:34;;;;;;;;;;;;;;;2.10;93.67;101123.20;68064;1275;1016186;-61
2023/02/07 14:40:37;;;;;;;;;;;;;;;2.02;93.80;101126.56;68000;1275;1016417;-60
2023/02/07 14:43:39;;;;;;;;;;;;;;;2.04;94.60;101127.45;67979;1275;1016275;-60
2023/02/07 14:46:42;;;;;;;;;;;;;;;2.01;94.34;101124.83;68014;1275;1016423;-61
2023/02/07 14:49:44;;;;;;;;;;;;;;;1.78;94.61;101125.44;68004;1275;1016112;-60
2023/02/07 14:52:47;;;;;;;;;;;;;;;1.60;95.47;101121.94;68026;1275;1016379;-60
2023/02/07 14:55:49;;;;;;;;;;;;;;;1.45;96.17;101115.54;68054;1275;1016505;-60
2023/02/07 14:58:52;;;;;;;;;;;;;;;1.68;94.77;101114.27;68022;1275;1016252;-60
2023/02/07 15:01:54;;;;;;;;;;;;;;;1.75;94.47;101110.56;67979;1275;1016944;-60
2023/02/07 15:04:56;;;;;;;;;;;;;;;1.81;94.20;101109.09;68041;1275;1016436;-60
2023/02/07 15:07:59;;;;;;;;;;;;;;;1.69;94.57;101111.17;68046;1275;1016342;-60
2023/02/07 15:11:02;;;;;;;;;;;;;;;1.52;95.61;101120.13;68005;1275;1016635;-60
2023/02/07 15:14:04;;;;;;;;;;;;;;;1.42;96.27;101121.36;67966;1275;1016963;-60
2023/02/07 15:17:07;;;;;;;;;;;;;;;1.29;97.09;101127.23;67982;1275;1016534;-60
2023/02/07 15:20:09;;;;;;;;;;;;;;;1.25;97.11;101130.45;68018;1275;1016424;-60